Time;durP1;ratioP1;P1;durP2;ratioP2;P2;SDS_P1;SDS_P2;PMS_P1;PMS_P2;Temp;Humidity;BMP_temperature;BMP_pressure;BME280_temperature;BME280_humidity;BME280_pressure;Samples;Min_cycle;Max_cycle;Signal;HPM_P1;HPM_P2
2022/01/10 00:02:23;;;;;;;30.20;6.70;;;3.60;99.90;;;;;;5097050;28;20086;-67
2022/01/10 00:04:48;;;;;;;28.25;6.38;;;3.50;99.90;;;;;;5095670;28;20444;-68
2022/01/10 00:07:14;;;;;;;21.92;6.18;;;3.50;99.90;;;;;;5096505;28;20028;-68
2022/01/10 00:09:39;;;;;;;23.45;5.68;;;3.50;99.90;;;;;;5096437;28;20044;-67
2022/01/10 00:12:06;;;;;;;23.52;9.70;;;3.40;99.90;;;;;;5096437;28;20028;-68
2022/01/10 00:14:31;;;;;;;20.58;7.93;;;3.40;99.90;;;;;;5096250;28;20032;-67
2022/01/10 00:16:57;;;;;;;20.58;7.03;;;3.40;99.90;;;;;;5096416;28;20065;-68
2022/01/10 00:19:22;;;;;;;18.58;5.53;;;3.40;99.90;;;;;;5096471;28;20046;-68
2022/01/10 00:21:48;;;;;;;20.23;5.60;;;3.40;99.90;;;;;;5094932;28;20123;-68
2022/01/10 00:24:14;;;;;;;21.15;6.15;;;3.30;99.90;;;;;;5094305;28;20047;-68
2022/01/10 00:26:39;;;;;;;26.67;6.75;;;3.30;99.90;;;;;;5095877;28;20036;-67
2022/01/10 00:29:05;;;;;;;21.58;5.93;;;3.30;99.90;;;;;;5096494;28;20051;-68
2022/01/10 00:31:31;;;;;;;18.95;5.80;;;3.30;99.90;;;;;;5096169;28;20048;-68
2022/01/10 00:33:56;;;;;;;14.57;5.30;;;3.30;99.90;;;;;;5096150;28;20549;-68
2022/01/10 00:36:22;;;;;;;25.83;6.30;;;3.30;99.90;;;;;;5095994;28;20036;-68
2022/01/10 00:38:47;;;;;;;23.30;6.78;;;3.40;99.90;;;;;;5096344;28;20471;-69
2022/01/10 00:41:13;;;;;;;15.80;5.32;;;3.30;99.90;;;;;;5095974;28;20393;-68
2022/01/10 00:43:45;;;;;;;17.33;6.80;;;3.30;99.90;;;;;;5096560;28;20456;-68
2022/01/10 00:46:11;;;;;;;20.35;6.63;;;3.30;99.90;;;;;;5095683;28;20044;-68
2022/01/10 00:48:37;;;;;;;13.50;6.47;;;3.30;99.90;;;;;;5095790;28;20104;-68
2022/01/10 00:51:03;;;;;;;16.75;5.30;;;3.30;99.90;;;;;;5095741;28;20036;-68
2022/01/10 00:53:28;;;;;;;14.73;5.35;;;3.20;99.90;;;;;;5095105;28;20047;-68
2022/01/10 00:55:54;;;;;;;19.45;5.55;;;3.20;99.90;;;;;;5095167;28;20050;-68
2022/01/10 00:58:19;;;;;;;17.13;5.95;;;3.20;99.90;;;;;;5095819;28;20368;-68
2022/01/10 01:00:45;;;;;;;12.05;5.72;;;3.20;99.90;;;;;;5095612;28;20066;-68
2022/01/10 01:03:11;;;;;;;20.45;4.80;;;3.20;99.90;;;;;;5095838;28;20039;-68
2022/01/10 01:05:42;;;;;;;13.88;4.90;;;3.20;99.90;;;;;;5095097;28;20085;-68
2022/01/10 01:08:09;;;;;;;19.23;5.38;;;3.20;99.90;;;;;;5095204;28;20090;-69
2022/01/10 01:24:08;;;;;;;15.65;4.82;;;3.00;99.90;;;;;;5095179;28;20048;-69
2022/01/10 01:26:45;;;;;;;13.57;4.53;;;3.10;99.90;;;;;;5094993;28;20042;-69
2022/01/10 01:29:14;;;;;;;12.57;4.95;;;3.10;99.90;;;;;;5093948;28;20048;-67
2022/01/10 01:31:41;;;;;;;14.65;5.32;;;3.10;99.90;;;;;;5093747;28;20044;-66
2022/01/10 01:34:07;;;;;;;11.45;4.78;;;3.00;99.90;;;;;;5094911;28;20477;-67
2022/01/10 01:36:34;;;;;;;12.27;4.80;;;3.00;99.90;;;;;;5094228;28;20043;-67
2022/01/10 01:39:00;;;;;;;12.75;5.20;;;3.00;99.90;;;;;;5095011;28;20044;-68
2022/01/10 01:43:59;;;;;;;12.25;4.45;;;3.00;99.90;;;;;;5093660;28;20520;-69
2022/01/10 01:46:26;;;;;;;13.70;4.90;;;3.00;99.90;;;;;;5094506;28;20464;-68
2022/01/10 01:48:53;;;;;;;15.45;5.57;;;2.90;99.90;;;;;;5093846;28;20039;-68
2022/01/10 01:51:19;;;;;;;14.32;4.43;;;2.80;99.90;;;;;;5094507;28;20101;-68
2022/01/10 01:53:46;;;;;;;16.02;5.75;;;2.80;99.90;;;;;;5095217;28;20098;-68
2022/01/10 01:56:12;;;;;;;22.63;5.97;;;2.80;99.90;;;;;;5094015;28;20036;-68
2022/01/10 01:58:39;;;;;;;15.13;5.20;;;2.80;99.90;;;;;;5093214;28;20036;-68
2022/01/10 02:01:06;;;;;;;16.65;5.43;;;2.80;99.90;;;;;;5093036;28;20487;-69
2022/01/10 02:03:33;;;;;;;14.45;5.38;;;2.80;99.90;;;;;;5093404;28;20048;-68
2022/01/10 02:06:00;;;;;;;21.13;6.00;;;2.80;99.90;;;;;;5094121;28;20115;-68
2022/01/10 02:08:26;;;;;;;14.60;5.57;;;2.80;99.90;;;;;;5092982;28;20036;-68
2022/01/10 02:10:52;;;;;;;16.25;6.05;;;2.80;99.90;;;;;;5093577;28;20048;-68
2022/01/10 02:13:17;;;;;;;13.77;5.15;;;2.80;99.90;;;;;;5094501;28;20028;-68
2022/01/10 02:15:58;;;;;;;16.17;5.45;;;2.80;99.90;;;;;;5094074;28;20505;-68
2022/01/10 02:18:24;;;;;;;17.50;5.55;;;2.70;99.90;;;;;;5094037;28;20047;-69
2022/01/10 02:20:50;;;;;;;17.65;5.05;;;2.70;99.90;;;;;;5094498;28;20040;-68
2022/01/10 02:23:17;;;;;;;15.93;5.35;;;2.70;99.90;;;;;;5094680;28;20036;-68
2022/01/10 02:25:44;;;;;;;13.15;5.82;;;2.60;99.90;;;;;;5092593;28;20123;-68
2022/01/10 02:28:10;;;;;;;17.40;5.93;;;2.60;99.90;;;;;;5094405;28;20067;-68
2022/01/10 02:30:36;;;;;;;15.02;4.88;;;2.60;99.90;;;;;;5093861;28;20039;-68
2022/01/10 02:33:03;;;;;;;13.90;6.20;;;2.60;99.90;;;;;;5093011;28;20155;-68
2022/01/10 02:35:38;;;;;;;15.52;5.82;;;2.60;99.90;;;;;;5092735;28;20067;-68
2022/01/10 02:38:04;;;;;;;16.25;4.93;;;2.60;99.90;;;;;;5092385;28;20044;-68
2022/01/10 02:40:31;;;;;;;13.30;5.47;;;2.60;99.90;;;;;;5094053;28;20036;-68
2022/01/10 02:42:58;;;;;;;16.60;6.25;;;2.60;99.90;;;;;;5093889;28;20447;-68
2022/01/10 02:45:25;;;;;;;16.60;6.32;;;2.60;99.90;;;;;;5094087;28;20119;-68
2022/01/10 02:47:51;;;;;;;14.30;6.05;;;2.60;99.90;;;;;;5092749;28;20387;-68
2022/01/10 02:50:19;;;;;;;16.27;6.28;;;2.60;99.90;;;;;;5094524;28;20035;-69
2022/01/10 02:52:45;;;;;;;15.65;5.35;;;2.60;99.90;;;;;;5093822;28;20044;-68
2022/01/10 02:55:12;;;;;;;15.77;6.00;;;2.60;99.90;;;;;;5093835;28;20055;-68
2022/01/10 02:57:38;;;;;;;15.23;5.53;;;2.50;99.90;;;;;;5093167;28;20047;-68
2022/01/10 03:00:17;;;;;;;12.13;5.03;;;2.50;99.90;;;;;;5094143;28;20048;-68
2022/01/10 03:02:44;;;;;;;15.50;5.13;;;2.50;99.90;;;;;;5092802;28;20115;-69
2022/01/10 03:05:10;;;;;;;16.15;6.25;;;2.50;99.90;;;;;;5094381;28;20493;-68
2022/01/10 03:07:37;;;;;;;16.85;5.85;;;2.50;99.90;;;;;;5092990;28;20481;-68
2022/01/10 03:10:04;;;;;;;17.90;6.22;;;2.50;99.90;;;;;;5093624;28;20036;-68
2022/01/10 03:12:31;;;;;;;13.90;4.85;;;2.50;99.90;;;;;;5092744;28;20549;-68
2022/01/10 03:15:01;;;;;;;19.25;6.38;;;2.50;99.90;;;;;;5092653;28;20059;-68
2022/01/10 03:17:27;;;;;;;12.73;5.35;;;2.50;99.90;;;;;;5092835;28;20500;-68
2022/01/10 03:19:53;;;;;;;14.27;5.35;;;2.50;99.90;;;;;;5093383;28;20043;-68
2022/01/10 03:22:19;;;;;;;16.10;5.28;;;2.40;99.90;;;;;;5093434;28;20040;-68
2022/01/10 03:24:44;;;;;;;18.92;6.20;;;2.40;99.90;;;;;;5092253;28;20086;-68
2022/01/10 03:27:10;;;;;;;14.68;6.13;;;2.40;99.90;;;;;;5093381;28;20032;-68
2022/01/10 03:29:36;;;;;;;17.70;6.97;;;2.40;99.90;;;;;;5093453;28;20437;-68
2022/01/10 03:32:02;;;;;;;12.50;6.07;;;2.40;99.90;;;;;;5093138;28;20093;-68
2022/01/10 03:34:28;;;;;;;14.65;5.90;;;2.40;99.90;;;;;;5093273;28;20456;-68
2022/01/10 03:36:54;;;;;;;14.75;6.68;;;2.40;99.90;;;;;;5092653;28;20036;-69
2022/01/10 03:39:20;;;;;;;14.38;7.43;;;2.40;99.90;;;;;;5093324;28;20036;-68
2022/01/10 03:41:46;;;;;;;21.35;7.68;;;2.40;99.90;;;;;;5093186;28;20392;-68
2022/01/10 03:44:12;;;;;;;18.67;6.95;;;2.40;99.90;;;;;;5093073;28;20040;-68
2022/01/10 03:46:37;;;;;;;14.48;7.45;;;2.40;99.90;;;;;;5092993;28;20062;-68
2022/01/10 03:49:05;;;;;;;19.08;7.45;;;2.40;99.90;;;;;;5091729;28;20048;-68
2022/01/10 03:51:30;;;;;;;17.92;8.60;;;2.30;99.90;;;;;;5093395;28;20040;-68
2022/01/10 03:53:56;;;;;;;25.25;9.88;;;2.20;99.90;;;;;;5093453;28;20050;-69
2022/01/10 03:56:25;;;;;;;21.48;8.82;;;2.30;99.90;;;;;;5092647;28;20381;-68
2022/01/10 03:58:50;;;;;;;19.58;10.15;;;2.20;99.90;;;;;;5092595;28;20039;-69
2022/01/10 04:01:16;;;;;;;23.30;10.18;;;2.20;99.90;;;;;;5097181;28;20353;-68
2022/01/10 04:03:42;;;;;;;21.98;9.23;;;2.30;99.90;;;;;;5096730;28;20040;-68
2022/01/10 04:06:09;;;;;;;19.83;10.23;;;2.20;99.90;;;;;;5095262;28;20123;-68
2022/01/10 04:08:35;;;;;;;27.48;12.40;;;2.30;99.90;;;;;;5096777;28;20418;-68
2022/01/10 04:11:01;;;;;;;27.92;11.60;;;2.20;99.90;;;;;;5096629;28;20036;-68
2022/01/10 04:13:27;;;;;;;22.58;11.77;;;2.20;99.90;;;;;;5095824;28;20461;-68
2022/01/10 04:15:52;;;;;;;22.83;11.35;;;2.20;99.90;;;;;;5096638;28;20080;-69
2022/01/10 04:18:19;;;;;;;27.73;12.30;;;2.10;99.90;;;;;;5096519;28;20040;-68
2022/01/10 04:20:45;;;;;;;25.45;12.27;;;2.10;99.90;;;;;;5096354;28;20037;-68
2022/01/10 04:23:12;;;;;;;24.65;13.20;;;2.20;99.90;;;;;;5095621;28;20063;-68
2022/01/10 04:25:38;;;;;;;24.70;12.18;;;2.10;99.90;;;;;;5096532;28;20115;-68
2022/01/10 04:28:03;;;;;;;22.55;10.60;;;2.00;99.90;;;;;;5096366;28;20094;-68
2022/01/10 04:30:29;;;;;;;28.27;11.00;;;2.10;99.90;;;;;;5097055;28;20039;-68
2022/01/10 04:32:57;;;;;;;24.40;11.55;;;2.10;99.90;;;;;;5096268;28;20376;-68
2022/01/10 04:35:23;;;;;;;28.38;11.73;;;2.10;99.90;;;;;;5096119;28;20487;-68
2022/01/10 04:37:49;;;;;;;27.40;13.18;;;2.20;99.90;;;;;;5095989;28;20119;-68
2022/01/10 04:40:15;;;;;;;34.45;12.40;;;2.10;99.90;;;;;;5096122;28;20047;-68
2022/01/10 04:42:40;;;;;;;23.98;11.90;;;2.10;99.90;;;;;;5096484;28;20040;-68
2022/01/10 04:45:06;;;;;;;26.50;12.48;;;2.10;99.90;;;;;;5094653;28;20047;-68
2022/01/10 04:47:32;;;;;;;27.63;11.80;;;2.00;99.90;;;;;;5095414;28;20088;-68
2022/01/10 04:52:23;;;;;;;25.63;11.93;;;2.00;99.90;;;;;;5096198;28;20051;-68
2022/01/10 04:54:49;;;;;;;22.77;11.55;;;2.00;99.90;;;;;;5094581;28;20043;-68
2022/01/10 04:57:14;;;;;;;28.58;12.18;;;2.00;99.90;;;;;;5094108;28;20039;-68
2022/01/10 04:59:40;;;;;;;24.05;12.23;;;2.00;99.90;;;;;;5095450;28;20538;-68
2022/01/10 05:02:06;;;;;;;22.48;10.48;;;2.10;99.90;;;;;;5095824;28;20104;-68
2022/01/10 05:04:32;;;;;;;29.88;12.10;;;2.00;99.90;;;;;;5095566;28;20036;-68
2022/01/10 05:06:57;;;;;;;31.65;13.80;;;2.10;99.90;;;;;;5094875;28;20540;-68
2022/01/10 05:09:23;;;;;;;35.42;14.05;;;2.00;99.90;;;;;;5095598;28;20040;-68
2022/01/10 05:11:48;;;;;;;21.55;12.15;;;2.10;99.90;;;;;;5095304;28;20036;-68
2022/01/10 05:14:14;;;;;;;23.45;11.20;;;2.10;99.90;;;;;;5095269;28;20032;-68
2022/01/10 05:16:40;;;;;;;19.42;11.52;;;2.00;99.90;;;;;;5095026;28;20032;-68
2022/01/10 05:19:09;;;;;;;20.83;10.73;;;2.00;99.90;;;;;;5094037;28;20376;-68
2022/01/10 05:21:35;;;;;;;22.13;10.80;;;2.10;99.90;;;;;;5095132;28;20044;-68
2022/01/10 05:24:01;;;;;;;22.98;11.88;;;2.10;99.90;;;;;;5095148;28;20040;-68
2022/01/10 05:26:26;;;;;;;25.85;12.45;;;2.00;99.90;;;;;;5094653;28;20038;-68
2022/01/10 05:28:54;;;;;;;20.83;11.10;;;2.10;99.90;;;;;;5095564;28;20067;-68
2022/01/10 05:31:20;;;;;;;26.10;11.38;;;2.00;99.90;;;;;;5076823;28;20405;-68
2022/01/10 05:33:46;;;;;;;19.45;11.40;;;2.00;99.90;;;;;;5093935;28;20111;-68
2022/01/10 05:36:12;;;;;;;19.42;10.70;;;2.00;99.90;;;;;;5094521;28;20105;-68
2022/01/10 05:38:38;;;;;;;22.55;12.15;;;2.00;99.90;;;;;;5094601;28;20162;-69
2022/01/10 05:41:03;;;;;;;24.00;12.32;;;2.00;99.90;;;;;;5094071;28;20082;-69
2022/01/10 05:43:29;;;;;;;26.35;12.88;;;2.10;99.90;;;;;;5094873;28;20524;-69
2022/01/10 05:45:55;;;;;;;22.90;12.10;;;2.00;99.90;;;;;;5094490;28;20032;-66
2022/01/10 05:48:25;;;;;;;25.52;11.88;;;2.00;99.90;;;;;;5094564;28;20491;-66
2022/01/10 05:50:52;;;;;;;26.23;13.25;;;2.00;99.90;;;;;;5094657;28;20093;-70
2022/01/10 05:53:18;;;;;;;23.40;11.63;;;2.00;99.90;;;;;;5095184;28;20036;-66
2022/01/10 05:55:45;;;;;;;25.67;11.63;;;2.00;99.90;;;;;;5094006;28;20044;-66
2022/01/10 05:58:11;;;;;;;24.65;11.45;;;2.00;99.90;;;;;;5094643;28;20040;-66
2022/01/10 06:00:36;;;;;;;24.27;11.70;;;2.00;99.90;;;;;;5094696;28;20078;-67
2022/01/10 06:03:03;;;;;;;23.10;11.88;;;2.00;99.90;;;;;;5093439;28;20491;-66
2022/01/10 06:05:31;;;;;;;26.00;11.32;;;1.90;99.90;;;;;;5093296;28;20484;-66
2022/01/10 06:08:02;;;;;;;25.00;12.65;;;1.90;99.90;;;;;;5093279;28;20036;-66
2022/01/10 06:10:29;;;;;;;27.05;13.30;;;1.80;99.90;;;;;;5094586;28;20036;-66
2022/01/10 06:12:55;;;;;;;26.42;12.10;;;1.90;99.90;;;;;;5094408;28;20126;-66
2022/01/10 06:15:21;;;;;;;21.27;11.98;;;1.90;99.90;;;;;;5092831;28;20421;-67
2022/01/10 06:17:47;;;;;;;23.50;12.20;;;1.80;99.90;;;;;;5093771;28;20561;-67
2022/01/10 06:20:13;;;;;;;20.08;12.13;;;1.80;99.90;;;;;;5094183;28;20068;-67
2022/01/10 06:22:39;;;;;;;20.08;10.75;;;1.90;99.90;;;;;;5092433;28;20040;-67
2022/01/10 06:25:07;;;;;;;20.35;11.48;;;1.80;99.90;;;;;;5093901;28;20403;-67
2022/01/10 06:27:33;;;;;;;26.55;14.20;;;1.90;99.90;;;;;;5091998;28;20480;-67
2022/01/10 06:29:58;;;;;;;22.20;12.93;;;1.80;99.90;;;;;;5106216;28;20042;-67
2022/01/10 06:32:24;;;;;;;28.08;13.07;;;1.80;99.90;;;;;;5114215;28;20039;-67
2022/01/10 06:34:50;;;;;;;22.20;10.85;;;1.80;99.90;;;;;;5114260;28;20032;-68
2022/01/10 06:37:16;;;;;;;23.85;11.90;;;1.70;99.90;;;;;;5113483;28;20487;-69
2022/01/10 06:39:42;;;;;;;19.75;11.60;;;1.70;99.90;;;;;;5095339;28;20043;-69
2022/01/10 06:42:07;;;;;;;19.85;12.18;;;1.70;99.90;;;;;;5114346;28;20353;-68
2022/01/10 06:44:33;;;;;;;24.95;12.57;;;1.70;99.90;;;;;;5114141;28;20035;-68
2022/01/10 06:46:59;;;;;;;27.60;12.38;;;1.60;99.90;;;;;;5114129;28;20028;-68
2022/01/10 06:49:24;;;;;;;23.42;12.90;;;1.60;99.90;;;;;;5113531;28;20036;-68
2022/01/10 06:51:50;;;;;;;29.73;13.07;;;1.60;99.90;;;;;;5113943;28;20376;-68
2022/01/10 06:54:16;;;;;;;23.73;12.55;;;1.60;99.90;;;;;;5114511;28;20040;-68
2022/01/10 06:56:42;;;;;;;21.02;11.85;;;1.50;99.90;;;;;;5112250;28;20044;-68
2022/01/10 06:59:08;;;;;;;22.50;12.43;;;1.60;99.90;;;;;;5113742;28;20027;-68
2022/01/10 07:01:34;;;;;;;23.95;12.85;;;1.50;99.90;;;;;;5114256;28;20424;-68
2022/01/10 07:04:00;;;;;;;28.33;15.40;;;1.50;99.90;;;;;;5114027;28;20038;-68
2022/01/10 07:06:26;;;;;;;25.77;13.45;;;1.50;99.90;;;;;;5112730;28;20032;-68
2022/01/10 07:08:52;;;;;;;25.83;13.35;;;1.50;99.90;;;;;;5113055;28;20054;-68
2022/01/10 07:11:18;;;;;;;25.45;13.23;;;1.50;99.90;;;;;;5113911;28;20032;-68
2022/01/10 07:13:44;;;;;;;29.92;14.00;;;1.50;99.90;;;;;;5113688;28;20040;-68
2022/01/10 07:16:10;;;;;;;25.27;13.25;;;1.40;99.90;;;;;;5113900;28;20430;-68
2022/01/10 07:18:36;;;;;;;30.27;14.93;;;1.40;99.90;;;;;;5114198;28;20031;-68
2022/01/10 07:21:02;;;;;;;33.05;14.88;;;1.40;99.90;;;;;;5113340;28;20515;-68
2022/01/10 07:23:27;;;;;;;25.38;13.40;;;1.40;99.90;;;;;;5113505;28;20384;-69
2022/01/10 07:25:53;;;;;;;26.85;13.40;;;1.40;99.90;;;;;;5112020;28;20044;-68
2022/01/10 07:28:19;;;;;;;24.65;13.35;;;1.40;99.90;;;;;;5112446;28;20036;-68
2022/01/10 07:30:44;;;;;;;25.95;13.43;;;1.40;99.90;;;;;;5095693;28;20425;-68
2022/01/10 07:33:10;;;;;;;26.15;13.43;;;1.40;99.90;;;;;;5112808;28;20122;-70
2022/01/10 07:35:36;;;;;;;28.63;14.18;;;1.40;99.90;;;;;;5117173;28;20402;-69
2022/01/10 07:38:01;;;;;;;24.10;13.38;;;1.40;99.90;;;;;;5117375;28;20047;-69
2022/01/10 07:40:27;;;;;;;26.38;15.60;;;1.40;99.90;;;;;;5117132;28;20039;-69
2022/01/10 07:42:53;;;;;;;39.80;19.52;;;1.30;99.90;;;;;;5118118;28;20036;-68
2022/01/10 07:45:18;;;;;;;32.53;19.05;;;1.40;99.90;;;;;;5117430;28;20110;-68
2022/01/10 07:47:44;;;;;;;30.13;17.30;;;1.40;99.90;;;;;;5117387;28;20483;-69
2022/01/10 07:50:10;;;;;;;31.75;17.95;;;1.40;99.90;;;;;;5117981;28;20035;-68
2022/01/10 07:52:36;;;;;;;29.63;15.45;;;1.30;99.90;;;;;;5117421;28;20051;-68
2022/01/10 07:55:03;;;;;;;27.38;14.43;;;1.30;99.90;;;;;;5117158;28;20502;-68
2022/01/10 07:57:29;;;;;;;28.17;15.77;;;1.30;99.90;;;;;;5116674;28;20044;-69
2022/01/10 07:59:55;;;;;;;29.30;14.52;;;1.30;99.90;;;;;;5117719;28;20051;-68
2022/01/10 08:02:21;;;;;;;31.55;15.63;;;1.30;99.90;;;;;;5116975;28;20084;-68
2022/01/10 08:04:50;;;;;;;27.92;15.25;;;1.30;99.90;;;;;;5116992;28;20047;-68
2022/01/10 08:07:15;;;;;;;30.05;16.20;;;1.30;99.90;;;;;;5116927;28;20035;-69
2022/01/10 08:09:41;;;;;;;30.63;16.27;;;1.30;99.90;;;;;;5116973;28;20115;-68
2022/01/10 08:12:07;;;;;;;29.90;15.85;;;1.30;99.90;;;;;;5117134;28;20039;-68
2022/01/10 08:14:33;;;;;;;28.33;15.90;;;1.40;99.90;;;;;;5115546;28;20164;-68
2022/01/10 08:17:00;;;;;;;28.73;14.75;;;1.30;99.90;;;;;;5115149;28;20047;-68
2022/01/10 08:19:27;;;;;;;30.25;16.27;;;1.40;99.90;;;;;;5115394;28;20035;-69
2022/01/10 08:21:55;;;;;;;31.67;16.92;;;1.40;99.90;;;;;;5115659;28;20051;-68
2022/01/10 08:24:22;;;;;;;29.25;16.67;;;1.40;99.90;;;;;;5115611;28;20123;-69
2022/01/10 08:26:52;;;;;;;35.08;16.38;;;1.30;99.90;;;;;;5114959;28;20043;-69
2022/01/10 08:29:17;;;;;;;35.83;16.05;;;1.40;99.90;;;;;;5115929;28;20173;-69
2022/01/10 08:31:44;;;;;;;29.02;16.35;;;1.40;99.90;;;;;;5116374;28;20118;-69
2022/01/10 08:34:10;;;;;;;26.80;15.82;;;1.40;99.90;;;;;;5116710;28;20045;-68
2022/01/10 08:36:36;;;;;;;23.45;14.77;;;1.40;99.90;;;;;;5116183;28;20445;-69
2022/01/10 08:39:05;;;;;;;31.02;15.93;;;1.50;99.90;;;;;;5116409;27;20046;-69
2022/01/10 08:41:31;;;;;;;28.15;16.73;;;1.50;99.90;;;;;;5116500;28;20547;-69
2022/01/10 08:43:56;;;;;;;30.42;16.92;;;1.60;99.90;;;;;;5116917;28;20123;-69
2022/01/10 08:46:22;;;;;;;27.85;15.73;;;1.60;99.90;;;;;;5115145;28;20105;-69
2022/01/10 08:48:48;;;;;;;24.40;17.05;;;1.70;99.90;;;;;;5116223;28;20091;-69
2022/01/10 08:51:14;;;;;;;35.47;17.15;;;1.70;99.90;;;;;;5116606;28;20044;-68
2022/01/10 08:53:40;;;;;;;31.73;16.38;;;1.70;99.90;;;;;;5114821;28;20391;-69
2022/01/10 08:56:05;;;;;;;34.53;18.15;;;1.80;99.90;;;;;;5115507;28;20122;-69
2022/01/10 08:58:32;;;;;;;32.10;18.33;;;1.80;99.90;;;;;;5116458;28;20039;-69
2022/01/10 09:01:03;;;;;;;30.67;17.65;;;1.80;99.90;;;;;;5116058;28;20395;-68
2022/01/10 09:03:28;;;;;;;27.10;17.60;;;1.80;99.90;;;;;;5116487;27;20400;-68
2022/01/10 09:05:55;;;;;;;31.85;19.10;;;1.80;99.90;;;;;;5114134;28;20047;-68
2022/01/10 09:08:26;;;;;;;33.40;19.23;;;1.90;99.90;;;;;;5115597;28;20523;-69
2022/01/10 09:10:53;;;;;;;36.38;19.73;;;1.90;99.90;;;;;;5116212;28;20075;-68
2022/01/10 09:13:19;;;;;;;39.15;21.25;;;1.90;99.90;;;;;;5116013;28;20044;-69
2022/01/10 09:15:45;;;;;;;38.33;20.08;;;1.90;99.90;;;;;;5114078;28;20449;-68
2022/01/10 09:18:11;;;;;;;42.97;20.67;;;1.80;99.90;;;;;;5114415;28;20122;-69
2022/01/10 09:20:36;;;;;;;36.22;19.23;;;1.80;99.90;;;;;;5115534;28;20040;-68
2022/01/10 09:23:02;;;;;;;34.08;19.75;;;1.80;99.90;;;;;;5115413;28;20039;-69
2022/01/10 09:25:28;;;;;;;35.20;20.83;;;1.90;99.90;;;;;;5114381;28;20079;-67
2022/01/10 09:27:54;;;;;;;37.97;21.88;;;1.90;99.90;;;;;;5114002;28;20039;-68
2022/01/10 09:30:21;;;;;;;34.72;21.67;;;2.00;99.90;;;;;;5115534;28;20115;-68
2022/01/10 09:32:47;;;;;;;34.38;20.95;;;2.00;99.90;;;;;;5115499;28;20075;-68
2022/01/10 09:35:12;;;;;;;33.13;20.63;;;2.00;99.90;;;;;;5115283;28;20074;-68
2022/01/10 09:37:38;;;;;;;39.65;21.48;;;2.00;99.90;;;;;;5114652;28;20035;-69
2022/01/10 09:40:04;;;;;;;34.55;20.73;;;2.10;99.90;;;;;;5113886;28;20040;-69
2022/01/10 09:42:33;;;;;;;40.28;21.65;;;2.10;99.90;;;;;;5115766;28;20051;-69
2022/01/10 09:44:59;;;;;;;36.33;21.73;;;2.20;99.90;;;;;;5115063;28;20115;-69
2022/01/10 09:47:25;;;;;;;40.63;22.23;;;2.20;99.90;;;;;;5113361;28;20452;-68
2022/01/10 09:49:51;;;;;;;37.90;22.02;;;2.20;99.90;;;;;;5115299;28;20051;-68
2022/01/10 09:52:17;;;;;;;34.03;21.10;;;2.30;99.90;;;;;;5114012;28;20043;-69
2022/01/10 09:54:42;;;;;;;32.47;22.35;;;2.30;99.90;;;;;;5114816;28;20039;-69
2022/01/10 09:57:08;;;;;;;34.63;22.33;;;2.30;99.90;;;;;;5114665;28;20045;-69
2022/01/10 09:59:34;;;;;;;35.17;21.52;;;2.40;99.90;;;;;;5115020;28;20074;-69
2022/01/10 10:01:59;;;;;;;36.28;23.75;;;2.40;99.90;;;;;;5115011;28;20039;-68
2022/01/10 10:04:25;;;;;;;38.15;24.55;;;2.40;99.90;;;;;;5114571;28;20062;-69
2022/01/10 10:06:52;;;;;;;42.08;26.10;;;2.40;99.90;;;;;;5114681;28;20079;-68
2022/01/10 10:09:18;;;;;;;44.22;25.65;;;2.40;99.90;;;;;;5114963;28;20036;-68
2022/01/10 10:11:46;;;;;;;45.90;26.00;;;2.40;99.90;;;;;;5113214;28;20044;-68
2022/01/10 10:14:14;;;;;;;48.88;27.73;;;2.40;99.90;;;;;;5115127;28;20048;-68
2022/01/10 10:16:47;;;;;;;50.80;27.35;;;2.40;99.90;;;;;;5114401;28;20087;-68
2022/01/10 10:19:15;;;;;;;42.05;25.52;;;2.40;99.90;;;;;;5096488;28;20118;-69
2022/01/10 10:21:41;;;;;;;49.55;27.20;;;2.40;99.90;;;;;;5114414;28;20054;-69
2022/01/10 10:24:07;;;;;;;49.45;28.55;;;2.50;99.90;;;;;;5114466;28;20484;-68
2022/01/10 10:26:32;;;;;;;52.60;29.67;;;2.60;99.90;;;;;;5113855;28;20042;-68
2022/01/10 10:28:59;;;;;;;53.95;30.13;;;2.60;99.90;;;;;;5115312;28;20031;-68
2022/01/10 10:31:32;;;;;;;54.30;29.55;;;2.60;99.90;;;;;;5114591;28;20492;-68
2022/01/10 10:34:03;;;;;;;48.05;30.13;;;2.60;99.90;;;;;;5112442;28;20054;-70
2022/01/10 10:36:31;;;;;;;54.42;29.50;;;2.70;99.90;;;;;;5092468;28;20507;-69
2022/01/10 10:38:57;;;;;;;50.78;28.20;;;2.70;99.90;;;;;;5093898;28;20156;-69
2022/01/10 10:41:23;;;;;;;45.50;28.10;;;2.80;99.90;;;;;;5096980;28;20063;-68
2022/01/10 10:43:51;;;;;;;48.47;27.77;;;2.80;99.90;;;;;;5114034;28;20472;-69
2022/01/10 10:46:18;;;;;;;48.13;29.17;;;2.80;99.90;;;;;;5113602;28;20548;-70
2022/01/10 10:48:59;;;;;;;48.28;29.65;;;2.90;99.90;;;;;;5113005;28;20093;-69
2022/01/10 10:51:30;;;;;;;46.45;28.02;;;2.90;99.90;;;;;;5114165;28;20077;-69
2022/01/10 10:54:02;;;;;;;52.35;30.88;;;3.00;99.90;;;;;;5114339;28;20426;-69
2022/01/10 10:56:35;;;;;;;47.13;28.58;;;3.00;99.90;;;;;;5113935;28;20062;-69
2022/01/10 10:59:02;;;;;;;50.27;29.93;;;3.10;99.90;;;;;;5114415;28;20118;-69
2022/01/10 11:01:28;;;;;;;48.78;28.85;;;3.10;99.90;;;;;;5114187;28;20043;-69
2022/01/10 11:03:54;;;;;;;51.25;30.08;;;3.10;99.90;;;;;;5114224;28;20114;-69
2022/01/10 11:06:20;;;;;;;46.90;27.42;;;3.10;99.90;;;;;;5113152;28;20039;-69
2022/01/10 11:08:47;;;;;;;47.20;28.77;;;3.20;99.90;;;;;;5116285;28;20050;-69
2022/01/10 11:11:21;;;;;;;56.03;32.83;;;3.20;99.90;;;;;;5120729;27;20082;-69
2022/01/10 11:13:48;;;;;;;53.80;30.42;;;3.30;99.90;;;;;;5120509;27;20067;-69
2022/01/10 11:16:14;;;;;;;56.25;31.33;;;3.30;99.90;;;;;;5118833;28;20050;-69
2022/01/10 11:18:40;;;;;;;45.67;29.00;;;3.30;99.90;;;;;;5116343;27;20484;-69
2022/01/10 11:21:06;;;;;;;57.90;31.85;;;3.40;99.90;;;;;;5110459;28;20043;-69
2022/01/10 11:23:38;;;;;;;45.13;30.55;;;3.40;99.90;;;;;;5119507;27;20051;-69
2022/01/10 11:26:07;;;;;;;57.53;31.23;;;3.50;99.90;;;;;;5120127;27;20032;-68
2022/01/10 11:28:33;;;;;;;55.03;30.65;;;3.50;99.90;;;;;;5120534;27;20046;-69
2022/01/10 11:31:03;;;;;;;52.10;31.27;;;3.50;99.90;;;;;;5120611;27;20044;-69
2022/01/10 11:33:32;;;;;;;51.38;28.77;;;3.60;99.90;;;;;;5119199;28;20054;-69
2022/01/10 11:36:08;;;;;;;42.42;28.20;;;3.60;99.90;;;;;;5120100;27;20047;-68
2022/01/10 11:38:49;;;;;;;51.90;31.40;;;3.60;99.90;;;;;;5119942;27;20062;-69
2022/01/10 11:41:17;;;;;;;49.33;28.80;;;3.70;99.90;;;;;;5113264;28;20133;-65
2022/01/10 11:44:06;;;;;;;47.50;28.67;;;3.70;99.90;;;;;;5099891;28;20075;-65
2022/01/10 11:46:47;;;;;;;54.25;30.52;;;4.00;99.90;;;;;;5118979;28;20078;-65
2022/01/10 11:49:13;;;;;;;49.80;30.75;;;4.20;99.90;;;;;;5118932;28;20054;-65
2022/01/10 11:51:50;;;;;;;46.45;28.35;;;4.30;99.90;;;;;;5120676;27;20391;-66
2022/01/10 11:54:26;;;;;;;50.83;28.55;;;4.40;99.90;;;;;;5121016;27;20399;-65
2022/01/10 11:57:02;;;;;;;46.70;28.58;;;4.50;99.90;;;;;;5119545;27;20499;-65
2022/01/10 11:59:42;;;;;;;52.35;28.15;;;4.60;99.90;;;;;;5119334;28;20078;-66
2022/01/10 12:02:10;;;;;;;41.50;27.80;;;4.70;99.90;;;;;;5118957;28;20441;-66
2022/01/10 12:04:45;;;;;;;43.85;27.08;;;4.70;99.90;;;;;;5120231;27;20084;-65
2022/01/10 12:07:15;;;;;;;43.20;26.67;;;4.80;99.90;;;;;;5119950;28;20048;-66
2022/01/10 12:09:44;;;;;;;56.25;29.77;;;4.80;99.90;;;;;;5120410;27;20044;-65
2022/01/10 12:12:13;;;;;;;42.95;25.63;;;4.90;99.90;;;;;;5120207;27;20035;-66
2022/01/10 12:14:38;;;;;;;40.28;24.30;;;5.00;99.90;;;;;;5117044;27;20050;-65
2022/01/10 12:17:05;;;;;;;43.35;26.20;;;5.00;99.90;;;;;;5119432;27;20035;-66
2022/01/10 12:19:31;;;;;;;40.97;26.08;;;5.00;99.90;;;;;;5119816;27;20050;-66
2022/01/10 12:21:57;;;;;;;35.22;23.13;;;5.10;99.90;;;;;;5116191;28;20374;-66
2022/01/10 12:24:22;;;;;;;41.03;24.20;;;5.10;99.90;;;;;;5116953;28;20645;-67
2022/01/10 12:26:49;;;;;;;48.85;25.83;;;5.20;99.90;;;;;;5116216;28;20118;-66
2022/01/10 12:29:15;;;;;;;39.92;25.00;;;5.20;99.90;;;;;;5112205;28;20036;-66
2022/01/10 12:31:43;;;;;;;42.20;23.85;;;5.30;99.90;;;;;;5107662;28;20096;-65
2022/01/10 12:34:13;;;;;;;40.15;24.67;;;5.30;99.90;;;;;;5110742;28;20070;-66
2022/01/10 12:36:41;;;;;;;46.85;24.80;;;5.30;99.90;;;;;;5095783;28;20040;-66
2022/01/10 12:39:18;;;;;;;44.17;22.65;;;5.30;99.90;;;;;;5098843;28;20137;-66
2022/01/10 12:41:44;;;;;;;38.40;25.95;;;5.30;99.90;;;;;;5114023;28;20043;-66
2022/01/10 12:44:10;;;;;;;38.58;24.63;;;5.40;99.90;;;;;;5116361;28;20035;-65
2022/01/10 12:46:36;;;;;;;35.42;23.60;;;5.40;99.90;;;;;;5116224;28;20031;-66
2022/01/10 12:49:10;;;;;;;42.70;23.58;;;5.40;99.90;;;;;;5116587;28;20465;-66
2022/01/10 12:51:39;;;;;;;41.63;22.35;;;5.50;99.90;;;;;;5110916;28;20035;-67
2022/01/10 12:54:11;;;;;;;42.05;24.00;;;5.50;99.90;;;;;;5104632;28;20036;-66
2022/01/10 12:56:37;;;;;;;35.47;21.08;;;5.50;99.90;;;;;;5088182;28;20051;-65
2022/01/10 12:59:04;;;;;;;41.33;22.15;;;5.60;99.90;;;;;;5106461;28;20391;-67